createdAt,value
2022-08-09T00:00:04.709Z,2.53
2022-08-09T00:02:34.074Z,2.50
2022-08-09T00:06:15.367Z,2.42
2022-08-09T00:07:49.065Z,2.85
2022-08-09T00:10:18.212Z,2.10
2022-08-09T00:12:52.652Z,2.22
2022-08-09T00:15:26.538Z,2.60
2022-08-09T00:18:11.478Z,2.20
2022-08-09T00:20:42.397Z,2.80
2022-08-09T00:23:56.143Z,2.30
2022-08-09T00:26:05.145Z,2.40
2022-08-09T00:28:34.755Z,2.50
2022-08-09T00:31:09.110Z,2.40
2022-08-09T00:33:52.010Z,2.78
2022-08-09T00:36:19.764Z,2.42
2022-08-09T00:38:46.688Z,2.78
2022-08-09T00:44:11.191Z,2.28
2022-08-09T00:44:14.338Z,2.17
2022-08-09T00:46:57.278Z,2.40
2022-08-09T00:49:31.844Z,2.47
2022-08-09T00:52:02.197Z,2.40
2022-08-09T00:54:36.208Z,2.65
2022-08-09T00:57:10.444Z,2.90
2022-08-09T00:59:46.207Z,2.72
2022-08-09T01:02:20.502Z,2.80
2022-08-09T01:05:13.930Z,2.22
2022-08-09T01:08:01.005Z,2.35
2022-08-09T01:10:35.754Z,2.55
2022-08-09T01:13:11.846Z,3.00
2022-08-09T01:15:52.425Z,2.40
2022-08-09T01:18:31.355Z,2.35
2022-08-09T01:21:17.306Z,2.47
2022-08-09T01:24:14.370Z,2.65
2022-08-09T01:27:05.552Z,2.40
2022-08-09T01:30:02.334Z,2.50
2022-08-09T01:32:50.770Z,2.33
2022-08-09T01:35:38.552Z,2.55
2022-08-09T01:38:15.579Z,2.83
2022-08-09T01:40:52.752Z,2.40
2022-08-09T01:43:32.544Z,2.67
2022-08-09T01:46:26.785Z,2.38
2022-08-09T01:48:59.969Z,2.40
2022-08-09T01:51:42.794Z,2.70
2022-08-09T01:54:12.128Z,2.47
2022-08-09T01:56:42.164Z,2.33
2022-08-09T01:59:17.771Z,2.53
2022-08-09T02:01:59.726Z,2.30
2022-08-09T02:04:29.682Z,2.25
2022-08-09T02:07:18.415Z,2.25
2022-08-09T02:10:04.713Z,2.60
2022-08-09T02:12:33.642Z,2.38
2022-08-09T02:15:02.246Z,2.45
2022-08-09T02:18:00.200Z,2.63
2022-08-09T02:20:26.581Z,2.10
2022-08-09T02:23:03.818Z,2.60
2022-08-09T02:25:42.533Z,2.42
2022-08-09T02:28:39.812Z,2.10
2022-08-09T02:31:18.908Z,2.50
2022-08-09T02:34:06.897Z,2.40
2022-08-09T02:36:42.218Z,2.90
2022-08-09T02:39:20.113Z,2.35
2022-08-09T02:42:05.635Z,2.88
2022-08-09T02:44:40.324Z,2.40
2022-08-09T02:47:11.501Z,2.58
2022-08-09T02:50:01.132Z,2.40
2022-08-09T02:52:35.728Z,2.35
2022-08-09T02:55:20.623Z,2.33
2022-08-09T02:58:00.683Z,2.35
2022-08-09T03:00:39.547Z,2.28
2022-08-09T03:04:13.137Z,2.13
2022-08-09T03:06:14.891Z,2.22
2022-08-09T03:08:46.433Z,2.47
2022-08-09T03:12:06.693Z,2.45
2022-08-09T03:14:10.110Z,2.28
2022-08-09T03:16:41.777Z,2.30
2022-08-09T03:19:16.597Z,2.50
2022-08-09T03:22:03.116Z,2.35
2022-08-09T03:24:42.029Z,2.53
2022-08-09T03:27:21.366Z,2.50
2022-08-09T03:29:58.017Z,2.55
2022-08-09T03:32:31.251Z,2.67
2022-08-09T03:34:59.652Z,2.40
2022-08-09T03:37:55.271Z,2.78
2022-08-09T03:40:14.447Z,2.22
2022-08-09T03:42:45.559Z,2.45
2022-08-09T03:45:13.448Z,2.25
2022-08-09T03:47:46.519Z,2.65
2022-08-09T03:50:14.151Z,2.40
2022-08-09T03:55:14.368Z,2.60
2022-08-09T03:57:44.831Z,2.35
2022-08-09T04:00:26.228Z,2.58
2022-08-09T04:02:54.619Z,2.38
2022-08-09T04:05:27.858Z,2.60
2022-08-09T04:07:57.348Z,2.63
2022-08-09T04:10:28.891Z,2.70
2022-08-09T04:12:58.251Z,2.72
2022-08-09T04:15:39.258Z,2.65
2022-08-09T04:18:16.595Z,2.75
2022-08-09T04:20:45.789Z,2.75
2022-08-09T04:23:16.742Z,3.00
2022-08-09T04:25:43.609Z,3.40
2022-08-09T04:28:10.145Z,2.90
2022-08-09T04:30:39.105Z,3.10
2022-08-09T04:33:11.455Z,2.97
2022-08-09T04:35:42.367Z,3.65
2022-08-09T04:38:09.141Z,3.63
2022-08-09T04:40:54.268Z,3.65
2022-08-09T04:43:25.234Z,3.45
2022-08-09T04:45:54.021Z,2.95
2022-08-09T04:48:21.320Z,3.08
2022-08-09T04:50:50.536Z,3.15
2022-08-09T04:53:17.370Z,3.05
2022-08-09T04:55:58.899Z,3.47
2022-08-09T04:58:31.905Z,3.42
2022-08-09T05:01:01.339Z,3.15
2022-08-09T05:03:41.058Z,2.83
2022-08-09T05:06:26.713Z,2.42
2022-08-09T05:08:59.901Z,3.13
2022-08-09T05:11:35.424Z,3.53
2022-08-09T05:14:06.723Z,3.13
2022-08-09T05:16:43.780Z,3.30
2022-08-09T05:19:24.463Z,2.90
2022-08-09T05:21:55.984Z,3.40
2022-08-09T05:24:24.826Z,3.38
2022-08-09T05:26:52.980Z,3.50
2022-08-09T05:29:22.065Z,4.57
2022-08-09T05:31:57.667Z,3.63
2022-08-09T05:34:30.001Z,3.33
2022-08-09T05:37:01.534Z,3.17
2022-08-09T05:39:35.844Z,3.05
2022-08-09T05:42:06.326Z,3.13
2022-08-09T05:44:34.930Z,3.30
2022-08-09T05:47:05.660Z,2.55
2022-08-09T05:50:23.221Z,2.90
2022-08-09T05:52:20.400Z,2.97
2022-08-09T05:54:49.178Z,2.42
2022-08-09T05:57:17.657Z,2.80
2022-08-09T05:59:45.928Z,3.08
2022-08-09T06:02:22.205Z,2.85
2022-08-09T06:04:48.800Z,2.25
2022-08-09T06:07:21.764Z,2.60
2022-08-09T06:10:01.500Z,2.80
2022-08-09T06:12:30.143Z,2.65
2022-08-09T06:15:01.124Z,2.85
2022-08-09T06:17:39.205Z,2.85
2022-08-09T06:20:08.135Z,2.90
2022-08-09T06:22:35.415Z,2.83
2022-08-09T06:25:02.383Z,2.40
2022-08-09T06:27:42.239Z,2.95
2022-08-09T06:30:10.754Z,3.72
2022-08-09T06:33:00.708Z,3.23
2022-08-09T06:35:55.746Z,3.00
2022-08-09T06:38:16.061Z,2.30
2022-08-09T06:40:43.431Z,2.40
2022-08-09T06:43:10.515Z,2.50
2022-08-09T06:46:06.833Z,3.30
2022-08-09T06:48:30.398Z,3.28
2022-08-09T06:50:58.550Z,2.55
2022-08-09T06:53:25.166Z,2.40
2022-08-09T06:55:52.672Z,2.70
2022-08-09T06:58:40.681Z,2.78
2022-08-09T07:01:08.021Z,2.88
2022-08-09T07:03:39.620Z,2.75
2022-08-09T07:06:19.677Z,2.92
2022-08-09T07:08:46.770Z,3.28
2022-08-09T07:11:17.489Z,3.03
2022-08-09T07:14:04.214Z,2.60
2022-08-09T07:16:42.563Z,3.13
2022-08-09T07:19:22.914Z,2.85
2022-08-09T07:21:57.515Z,2.72
2022-08-09T07:24:32.266Z,2.60
2022-08-09T07:27:10.977Z,2.67
2022-08-09T07:29:57.204Z,2.53
2022-08-09T07:32:32.354Z,2.60
2022-08-09T07:35:12.045Z,2.65
2022-08-09T07:37:45.654Z,2.50
2022-08-09T07:40:18.657Z,2.35
2022-08-09T07:43:14.750Z,2.50
2022-08-09T07:45:43.565Z,2.63
2022-08-09T07:48:28.585Z,2.67
2022-08-09T07:51:09.441Z,2.40
2022-08-09T07:54:06.962Z,3.33
2022-08-09T07:56:37.029Z,2.55
2022-08-09T07:59:15.923Z,2.20
2022-08-09T08:01:58.594Z,2.10
2022-08-09T08:04:31.123Z,2.33
2022-08-09T08:07:09.203Z,2.38
2022-08-09T08:09:51.546Z,2.90
2022-08-09T08:12:27.622Z,2.75
2022-08-09T08:14:55.147Z,2.60
2022-08-09T08:17:34.986Z,2.00
2022-08-09T08:20:12.527Z,2.08
2022-08-09T08:22:40.669Z,2.45
2022-08-09T08:25:13.172Z,2.00
2022-08-09T08:27:42.995Z,2.30
2022-08-09T08:30:11.363Z,2.03
2022-08-09T08:32:41.736Z,2.00
2022-08-09T08:35:22.588Z,2.10
2022-08-09T08:37:59.522Z,2.30
2022-08-09T08:40:29.694Z,2.20
2022-08-09T08:42:58.695Z,2.28
2022-08-09T08:45:37.474Z,2.47
2022-08-09T08:48:05.769Z,2.08
2022-08-09T08:50:32.958Z,2.13
2022-08-09T08:53:02.128Z,2.40
2022-08-09T08:55:32.200Z,2.10
2022-08-09T08:57:59.209Z,2.28
2022-08-09T09:00:34.342Z,1.90
2022-08-09T09:03:12.166Z,2.20
2022-08-09T09:05:59.925Z,2.33
2022-08-09T09:11:08.975Z,2.55
2022-08-09T09:13:55.232Z,2.38
2022-08-09T09:16:31.149Z,1.98
2022-08-09T09:19:37.319Z,2.25
2022-08-09T09:21:56.456Z,1.70
2022-08-09T09:24:30.114Z,2.00
2022-08-09T09:26:58.569Z,2.40
2022-08-09T09:29:58.106Z,2.35
2022-08-09T09:32:34.397Z,2.00
2022-08-09T09:35:10.885Z,2.20
2022-08-09T09:37:45.496Z,4.15
2022-08-09T09:40:12.428Z,2.30
2022-08-09T09:42:45.991Z,2.40
2022-08-09T09:45:14.510Z,1.98
2022-08-09T09:47:56.449Z,2.25
2022-08-09T09:50:51.020Z,2.00
2022-08-09T09:53:34.357Z,2.38
2022-08-09T09:56:19.682Z,2.60
2022-08-09T09:58:57.232Z,2.10
2022-08-09T10:01:31.278Z,2.10
2022-08-09T10:04:15.923Z,2.10
2022-08-09T10:06:52.031Z,2.20
2022-08-09T10:09:23.192Z,2.10
2022-08-09T10:12:14.692Z,1.80
2022-08-09T10:14:50.166Z,1.88
2022-08-09T10:17:38.893Z,2.15
2022-08-09T10:20:10.926Z,1.95
2022-08-09T10:22:42.161Z,2.00
2022-08-09T10:25:11.806Z,2.10
2022-08-09T10:27:57.308Z,2.25
2022-08-09T10:33:29.511Z,1.80
2022-08-09T10:36:02.168Z,2.20
2022-08-09T10:38:33.706Z,1.60
2022-08-09T10:41:18.710Z,2.05
2022-08-09T10:44:02.052Z,1.90
2022-08-09T10:47:00.876Z,1.92
2022-08-09T10:49:51.793Z,1.90
2022-08-09T10:52:45.402Z,2.03
2022-08-09T10:55:27.050Z,2.33
2022-08-09T10:58:00.539Z,2.00
2022-08-09T11:00:33.152Z,2.10
2022-08-09T11:03:18.064Z,1.70
2022-08-09T11:06:26.017Z,1.98
2022-08-09T11:08:53.822Z,2.00
2022-08-09T11:11:23.213Z,2.00
2022-08-09T11:14:31.692Z,2.03
2022-08-09T11:16:58.876Z,2.05
2022-08-09T11:20:11.383Z,1.90
2022-08-09T11:22:40.998Z,1.60
2022-08-09T11:25:26.143Z,2.00
2022-08-09T11:28:34.074Z,1.60
2022-08-09T11:34:08.405Z,1.60
2022-08-09T11:36:43.500Z,2.05
2022-08-09T11:39:11.332Z,1.88
2022-08-09T11:41:40.510Z,1.80
2022-08-09T11:44:08.716Z,1.77
2022-08-09T11:46:56.948Z,1.70
2022-08-09T11:50:56.868Z,1.95
2022-08-09T11:53:21.302Z,1.90
2022-08-09T11:55:53.343Z,1.80
2022-08-09T11:58:32.284Z,1.60
2022-08-09T12:01:37.590Z,1.60
2022-08-09T12:04:00.609Z,1.60
2022-08-09T12:06:32.449Z,1.98
2022-08-09T12:09:03.040Z,1.50
2022-08-09T12:14:36.898Z,1.95
2022-08-09T12:17:34.479Z,1.40
2022-08-09T12:19:59.353Z,1.48
2022-08-09T12:22:27.365Z,1.45
2022-08-09T12:25:11.869Z,2.10
2022-08-09T12:29:15.118Z,1.35
2022-08-09T12:30:36.703Z,1.42
2022-08-09T12:33:07.369Z,1.55
2022-08-09T12:35:40.768Z,1.50
2022-08-09T12:38:37.875Z,1.30
2022-08-09T12:41:05.478Z,1.48
2022-08-09T12:44:05.981Z,1.17
2022-08-09T12:46:23.660Z,1.88
2022-08-09T12:48:52.178Z,1.42
2022-08-09T12:51:52.828Z,1.38
2022-08-09T12:54:08.515Z,1.20
2022-08-09T12:56:51.029Z,1.33
2022-08-09T12:59:24.464Z,1.30
2022-08-09T13:02:09.621Z,1.17
2022-08-09T13:04:38.783Z,1.27
2022-08-09T13:07:11.232Z,1.50
2022-08-09T13:09:41.020Z,1.23
2022-08-09T13:12:12.185Z,1.20
2022-08-09T13:14:44.099Z,1.42
2022-08-09T13:17:44.457Z,1.45
2022-08-09T13:20:14.123Z,1.20
2022-08-09T13:23:06.139Z,1.33
2022-08-09T13:25:52.973Z,1.20
2022-08-09T13:28:33.858Z,1.27
2022-08-09T13:32:14.334Z,1.27
2022-08-09T13:33:57.246Z,1.67
2022-08-09T13:36:41.384Z,1.42
2022-08-09T13:41:54.255Z,1.35
2022-08-09T13:42:12.674Z,1.38
2022-08-09T13:44:42.767Z,1.27
2022-08-09T13:47:31.106Z,1.30
2022-08-09T13:50:02.990Z,2.10
2022-08-09T13:52:34.973Z,1.50
2022-08-09T13:55:05.069Z,1.40
2022-08-09T13:57:40.488Z,1.30
2022-08-09T14:00:12.528Z,1.50
2022-08-09T14:03:02.089Z,1.42
2022-08-09T14:05:58.352Z,1.40
2022-08-09T14:08:17.553Z,1.63
2022-08-09T14:10:50.556Z,1.92
2022-08-09T14:13:28.267Z,1.70
2022-08-09T14:16:11.036Z,1.33
2022-08-09T14:18:45.194Z,1.20
2022-08-09T14:21:20.431Z,1.48
2022-08-09T14:23:55.144Z,1.40
2022-08-09T14:26:33.549Z,1.50
2022-08-09T14:29:07.923Z,1.30
2022-08-09T14:31:54.233Z,1.60
2022-08-09T14:34:30.773Z,1.48
2022-08-09T14:37:06.863Z,1.50
2022-08-09T14:39:39.944Z,1.50
2022-08-09T14:42:13.095Z,1.48
2022-08-09T14:46:58.036Z,2.10
2022-08-09T14:47:57.562Z,1.70
2022-08-09T14:50:27.329Z,1.70
2022-08-09T14:52:53.986Z,1.60
2022-08-09T14:55:21.420Z,1.48
2022-08-09T14:57:49.413Z,1.45
2022-08-09T15:00:17.407Z,1.50
2022-08-09T15:02:47.425Z,1.48
2022-08-09T15:05:18.309Z,1.70
2022-08-09T15:07:45.565Z,1.63
2022-08-09T15:10:24.960Z,1.88
2022-08-09T15:12:56.398Z,2.45
2022-08-09T15:17:55.516Z,2.40
2022-08-09T15:21:55.589Z,2.33
2022-08-09T15:24:02.151Z,2.05
2022-08-09T15:25:57.466Z,2.10
2022-08-09T15:28:27.850Z,2.17
2022-08-09T15:31:10.140Z,2.70
2022-08-09T15:34:17.546Z,3.17
2022-08-09T15:36:30.010Z,3.38
2022-08-09T15:39:00.769Z,3.38
2022-08-09T15:41:31.720Z,3.33
2022-08-09T15:44:02.018Z,3.45
2022-08-09T15:46:33.350Z,3.60
2022-08-09T15:49:21.595Z,3.60
2022-08-09T15:52:04.367Z,3.30
2022-08-09T15:54:46.219Z,3.22
2022-08-09T15:57:19.076Z,3.15
2022-08-09T16:00:00.465Z,2.97
2022-08-09T16:02:27.473Z,2.67
2022-08-09T16:04:54.244Z,2.72
2022-08-09T16:07:20.951Z,2.50
2022-08-09T16:09:57.696Z,2.42
2022-08-09T16:12:31.245Z,3.63
2022-08-09T16:14:57.918Z,2.67
2022-08-09T16:17:28.865Z,2.70
2022-08-09T16:20:04.503Z,2.38
2022-08-09T16:22:33.047Z,2.22
2022-08-09T16:25:01.429Z,2.20
2022-08-09T16:27:29.653Z,2.13
2022-08-09T16:30:00.681Z,2.30
2022-08-09T16:32:53.231Z,2.50
2022-08-09T16:35:57.142Z,2.08
2022-08-09T16:38:08.192Z,2.33
2022-08-09T16:40:41.141Z,1.85
2022-08-09T16:43:08.875Z,1.67
2022-08-09T16:45:41.596Z,1.90
2022-08-09T16:48:41.701Z,1.73
2022-08-09T16:50:59.011Z,1.60
2022-08-09T16:53:34.267Z,1.90
2022-08-09T16:56:07.599Z,2.30
2022-08-09T16:58:39.786Z,1.67
2022-08-09T17:01:09.202Z,1.90
2022-08-09T17:03:36.398Z,2.08
2022-08-09T17:06:28.176Z,1.70
2022-08-09T17:09:01.748Z,1.38
2022-08-09T17:11:40.855Z,1.40
2022-08-09T17:14:25.857Z,1.60
2022-08-09T17:16:59.782Z,1.67
2022-08-09T17:19:46.630Z,1.60
2022-08-09T17:22:14.422Z,1.55
2022-08-09T17:24:41.452Z,1.92
2022-08-09T17:27:15.187Z,1.60
2022-08-09T17:29:45.549Z,2.20
2022-08-09T17:32:15.864Z,2.53
2022-08-09T17:35:04.223Z,1.67
2022-08-09T17:38:02.576Z,1.60
2022-08-09T17:40:26.176Z,1.60
2022-08-09T17:43:03.261Z,1.70
2022-08-09T17:46:06.422Z,1.35
2022-08-09T17:48:29.427Z,1.83
2022-08-09T17:51:06.477Z,1.83
2022-08-09T17:53:43.304Z,1.45
2022-08-09T17:56:14.903Z,1.35
2022-08-09T17:58:45.069Z,1.50
2022-08-09T18:01:22.386Z,1.48
2022-08-09T18:03:54.688Z,1.95
2022-08-09T18:06:32.471Z,2.17
2022-08-09T18:09:07.858Z,1.80
2022-08-09T18:12:05.059Z,1.98
2022-08-09T18:14:25.915Z,1.60
2022-08-09T18:16:53.296Z,1.63
2022-08-09T18:20:55.889Z,1.75
2022-08-09T18:22:13.157Z,1.50
2022-08-09T18:24:43.690Z,1.83
2022-08-09T18:28:01.959Z,2.10
2022-08-09T18:30:42.269Z,2.45
2022-08-09T18:32:54.126Z,2.70
2022-08-09T18:35:58.023Z,3.80
2022-08-09T18:38:08.555Z,3.35
2022-08-09T18:40:35.585Z,1.80
2022-08-09T18:43:03.692Z,1.60
2022-08-09T18:46:46.670Z,1.80
2022-08-09T18:48:17.678Z,1.77
2022-08-09T18:50:44.730Z,1.70
2022-08-09T18:53:13.381Z,1.88
2022-08-09T18:55:56.321Z,2.17
2022-08-09T18:58:32.132Z,1.85
2022-08-09T19:00:59.477Z,3.05
2022-08-09T19:03:26.904Z,1.70
2022-08-09T19:06:03.106Z,1.77
2022-08-09T19:08:31.511Z,1.70
2022-08-09T19:10:58.334Z,1.60
2022-08-09T19:13:38.768Z,1.77
2022-08-09T19:16:13.077Z,2.25
2022-08-09T19:18:45.729Z,1.80
2022-08-09T19:21:12.752Z,1.98
2022-08-09T19:24:36.231Z,1.73
2022-08-09T19:26:32.291Z,1.90
2022-08-09T19:29:03.218Z,1.70
2022-08-09T19:31:45.657Z,1.77
2022-08-09T19:34:21.607Z,1.85
2022-08-09T19:36:52.887Z,1.42
2022-08-09T19:39:43.045Z,1.80
2022-08-09T19:42:08.238Z,1.63
2022-08-09T19:44:35.540Z,1.67
2022-08-09T19:47:02.679Z,1.40
2022-08-09T19:50:08.175Z,1.80
2022-08-09T19:52:18.121Z,1.58
2022-08-09T19:54:44.987Z,1.67
2022-08-09T19:57:11.562Z,1.40
2022-08-09T19:59:57.862Z,1.80
2022-08-09T20:04:09.924Z,1.88
2022-08-09T20:05:14.867Z,1.65
2022-08-09T20:07:57.193Z,1.65
2022-08-09T20:10:28.016Z,1.67
2022-08-09T20:13:03.053Z,1.77
2022-08-09T20:16:33.354Z,1.55
2022-08-09T20:18:18.840Z,1.50
2022-08-09T20:20:46.930Z,1.40
2022-08-09T20:23:13.616Z,1.50
2022-08-09T20:25:52.244Z,1.67
2022-08-09T20:28:34.134Z,1.50
2022-08-09T20:31:02.914Z,1.70
2022-08-09T20:33:39.140Z,1.80
2022-08-09T20:36:08.914Z,2.13
2022-08-09T20:38:58.760Z,2.17
2022-08-09T20:41:34.691Z,1.98
2022-08-09T20:44:10.122Z,2.60
2022-08-09T20:46:43.073Z,1.58
2022-08-09T20:49:16.083Z,1.83
2022-08-09T20:51:44.242Z,1.70
2022-08-09T20:54:16.720Z,1.80
2022-08-09T20:56:46.748Z,1.80
2022-08-09T20:59:16.723Z,1.70
2022-08-09T21:01:50.511Z,1.52
2022-08-09T21:05:51.579Z,1.90
2022-08-09T21:07:12.375Z,1.80
2022-08-09T21:09:56.808Z,1.80
2022-08-09T21:15:14.139Z,1.85
2022-08-09T21:18:24.158Z,1.92
2022-08-09T21:20:30.314Z,1.90
2022-08-09T21:22:58.647Z,1.70
2022-08-09T21:25:55.422Z,1.83
2022-08-09T21:28:36.463Z,1.70
2022-08-09T21:31:17.322Z,2.00
2022-08-09T21:33:52.142Z,1.92
2022-08-09T21:36:23.020Z,2.00
2022-08-09T21:38:58.066Z,1.45
2022-08-09T21:42:05.929Z,1.70
2022-08-09T21:44:33.080Z,1.98
2022-08-09T21:47:01.920Z,1.63
2022-08-09T21:49:28.513Z,1.55
2022-08-09T21:51:55.056Z,1.95
2022-08-09T21:54:21.789Z,1.58
2022-08-09T21:56:54.657Z,1.92
2022-08-09T21:59:23.413Z,2.13
2022-08-09T22:01:59.001Z,2.28
2022-08-09T22:04:44.790Z,2.20
2022-08-09T22:07:33.804Z,1.98
2022-08-09T22:10:02.101Z,2.50
2022-08-09T22:12:31.300Z,2.20
2022-08-09T22:17:32.118Z,2.42
2022-08-09T22:20:01.265Z,2.40
2022-08-09T22:22:29.060Z,2.33
2022-08-09T22:26:05.335Z,2.33
2022-08-09T22:27:42.380Z,2.45
2022-08-09T22:30:09.802Z,2.80
2022-08-09T22:32:37.643Z,2.33
2022-08-09T22:35:06.722Z,2.80
2022-08-09T22:38:07.107Z,2.53
2022-08-09T22:43:01.294Z,2.30
2022-08-09T22:48:15.881Z,2.28
2022-08-09T22:48:36.094Z,2.67
2022-08-09T22:51:10.805Z,2.47
2022-08-09T22:54:02.607Z,3.00
2022-08-09T22:56:33.892Z,3.22
2022-08-09T22:59:05.845Z,2.90
2022-08-09T23:01:48.687Z,2.78
2022-08-09T23:04:15.295Z,2.70
2022-08-09T23:07:01.660Z,2.95
2022-08-09T23:09:28.342Z,2.88
2022-08-09T23:11:55.104Z,2.47
2022-08-09T23:14:37.410Z,3.03
2022-08-09T23:17:08.441Z,2.70
2022-08-09T23:20:07.442Z,3.05
2022-08-09T23:22:21.687Z,2.80
2022-08-09T23:24:48.625Z,3.15
2022-08-09T23:27:16.004Z,3.03
2022-08-09T23:29:42.597Z,2.70
2022-08-09T23:32:10.067Z,2.83
2022-08-09T23:34:37.587Z,3.00
2022-08-09T23:37:04.992Z,3.08
2022-08-09T23:39:32.311Z,2.50
2022-08-09T23:41:59.310Z,2.92
2022-08-09T23:44:26.082Z,2.67
2022-08-09T23:46:52.928Z,2.88
2022-08-09T23:51:52.327Z,2.50
2022-08-09T23:54:19.844Z,2.78
2022-08-09T23:56:54.149Z,2.40
2022-08-09T23:59:23.201Z,2.28
